Time;durP1;ratioP1;P1;durP2;ratioP2;P2;SDS_P1;SDS_P2;PMS_P1;PMS_P2;Temp;Humidity;BMP_temperature;BMP_pressure;BME280_temperature;BME280_humidity;BME280_pressure;Samples;Min_cycle;Max_cycle;Signal;HPM_P1;HPM_P2
2022/06/15 00:00:03;;;;;;;7.20;4.22;;;;;;;14.64;75.78;101025.53;690196;28;863;-46
2022/06/15 00:00:27;;;;;;;6.47;4.20;;;;;;;14.62;75.73;101021.13;691436;28;908;-46
2022/06/15 00:01:02;;;;;;;7.70;4.30;;;;;;;14.61;76.29;101024.69;690726;28;1047;-44
2022/06/15 00:01:24;;;;;;;7.68;4.25;;;;;;;14.60;75.98;101018.53;689842;28;4322;-45
2022/06/15 00:01:45;;;;;;;8.02;3.90;;;;;;;14.61;75.79;101019.41;691318;28;892;-45
2022/06/15 00:02:05;;;;;;;7.07;3.90;;;;;;;14.60;75.65;101018.53;690811;28;849;-44
2022/06/15 00:02:26;;;;;;;7.00;3.93;;;;;;;14.61;75.80;101019.41;690657;28;867;-44
2022/06/15 00:02:47;;;;;;;7.47;4.10;;;;;;;14.62;76.01;101022.06;691368;28;1013;-46
2022/06/15 00:03:07;;;;;;;7.38;3.80;;;;;;;14.62;75.31;101018.50;691320;28;959;-45
2022/06/15 00:03:30;;;;;;;7.20;3.93;;;;;;;14.62;75.47;101016.78;691489;28;781;-45
2022/06/15 00:03:51;;;;;;;6.97;4.30;;;;;;;14.62;75.52;101015.88;690936;28;830;-44
2022/06/15 00:04:11;;;;;;;8.18;4.03;;;;;;;14.60;75.43;101021.16;690074;28;4377;-46
2022/06/15 00:04:33;;;;;;;6.77;3.83;;;;;;;14.59;75.47;101019.44;690987;28;1076;-45
2022/06/15 00:04:54;;;;;;;6.80;3.80;;;;;;;14.59;75.45;101019.44;691171;28;1040;-44
2022/06/15 00:05:14;;;;;;;7.40;4.10;;;;;;;14.59;75.69;101016.81;690623;28;875;-45
2022/06/15 00:05:35;;;;;;;7.07;4.00;;;;;;;14.59;76.87;101019.44;691166;28;946;-45
2022/06/15 00:06:05;;;;;;;7.40;4.10;;;;;;;14.59;76.16;101022.09;690695;28;1203;-44
2022/06/15 00:06:29;;;;;;;7.78;3.90;;;;;;;14.60;76.02;101012.41;689787;28;954;-45
2022/06/15 00:06:49;;;;;;;6.63;4.05;;;;;;;14.60;75.51;101017.69;687563;28;1614;-44
2022/06/15 00:07:10;;;;;;;5.97;4.00;;;;;;;14.58;75.70;101015.06;687949;28;4507;-45
2022/06/15 00:07:31;;;;;;;7.27;4.00;;;;;;;14.60;75.89;101018.53;688407;28;860;-45
2022/06/15 00:07:52;;;;;;;8.13;3.90;;;;;;;14.60;75.85;101012.41;688255;28;862;-44
2022/06/15 00:08:13;;;;;;;10.00;3.95;;;;;;;14.59;76.17;101010.66;688669;28;1001;-44
2022/06/15 00:08:34;;;;;;;8.50;4.10;;;;;;;14.58;75.88;101015.06;688370;28;871;-44
2022/06/15 00:08:56;;;;;;;7.90;4.15;;;;;;;14.59;77.49;101021.19;691008;28;980;-45
2022/06/15 00:09:17;;;;;;;8.10;4.13;;;;;;;14.59;76.65;101018.56;691848;28;959;-47
2022/06/15 00:09:37;;;;;;;8.63;4.07;;;;;;;14.59;76.66;101015.94;691047;28;884;-46
2022/06/15 00:09:57;;;;;;;6.57;4.20;;;;;;;14.56;76.55;101008.94;690112;28;1213;-44
2022/06/15 00:10:19;;;;;;;6.97;3.90;;;;;;;14.54;75.98;101010.75;688906;28;4371;-45
2022/06/15 00:10:39;;;;;;;6.82;3.70;;;;;;;14.56;76.02;101010.72;684921;28;913;-44
2022/06/15 00:11:15;;;;;;;7.60;3.72;;;;;;;14.57;76.05;101017.72;683652;28;996;-46
2022/06/15 00:11:39;;;;;;;7.45;3.80;;;;;;;14.59;76.72;101008.03;684026;28;1342;-45
2022/06/15 00:11:59;;;;;;;7.15;4.25;;;;;;;14.66;76.13;101016.75;684550;28;1049;-44
2022/06/15 00:12:19;;;;;;;7.57;4.20;;;;;;;14.66;76.38;101011.47;686517;28;868;-45
2022/06/15 00:12:40;;;;;;;6.88;3.90;;;;;;;14.67;76.55;101013.22;690703;28;805;-45
2022/06/15 00:13:02;;;;;;;7.60;3.80;;;;;;;14.66;77.68;101016.75;689837;28;1055;-45
2022/06/15 00:13:23;;;;;;;6.38;3.60;;;;;;;14.64;76.14;101012.38;690277;28;4269;-47
2022/06/15 00:13:44;;;;;;;8.03;3.90;;;;;;;14.60;75.88;101008.00;691535;28;1193;-45
2022/06/15 00:14:08;;;;;;;6.53;4.00;;;;;;;14.61;76.20;101008.91;690261;28;896;-45
2022/06/15 00:14:30;;;;;;;6.68;4.10;;;;;;;14.60;76.26;101010.63;687792;28;1579;-45
2022/06/15 00:14:50;;;;;;;6.82;4.03;;;;;;;14.57;76.03;101008.06;687750;28;1096;-45
2022/06/15 00:15:11;;;;;;;8.18;4.20;;;;;;;14.57;75.38;101012.47;687643;28;1155;-46
2022/06/15 00:15:31;;;;;;;7.18;3.95;;;;;;;14.57;75.73;101005.44;687688;28;809;-44
2022/06/15 00:15:51;;;;;;;5.50;4.10;;;;;;;14.56;75.76;101005.47;688031;28;1088;-46
2022/06/15 00:16:12;;;;;;;5.83;4.33;;;;;;;14.55;75.38;101003.72;687977;28;4289;-45
2022/06/15 00:16:33;;;;;;;6.53;4.22;;;;;;;14.52;75.69;101001.16;687795;28;883;-45
2022/06/15 00:16:54;;;;;;;7.15;3.80;;;;;;;14.52;75.76;101004.63;686832;28;948;-45
2022/06/15 00:17:14;;;;;;;6.07;3.83;;;;;;;14.52;75.94;100999.38;688276;28;1025;-46
2022/06/15 00:17:35;;;;;;;8.80;4.10;;;;;;;14.54;76.09;101007.22;688138;28;1968;-45
2022/06/15 00:17:55;;;;;;;8.75;3.90;;;;;;;14.53;76.04;101002.88;687883;28;929;-46
2022/06/15 00:18:15;;;;;;;8.17;4.07;;;;;;;14.51;76.11;101002.91;689405;28;915;-45
2022/06/15 00:18:37;;;;;;;6.57;3.93;;;;;;;14.51;76.62;101008.19;688328;28;1066;-46
2022/06/15 00:18:57;;;;;;;7.15;3.92;;;;;;;14.51;76.31;101005.53;687060;28;1354;-44
2022/06/15 00:19:18;;;;;;;6.20;3.93;;;;;;;14.51;76.53;101002.91;687748;28;4372;-44
2022/06/15 00:19:38;;;;;;;5.65;3.50;;;;;;;14.51;77.77;101000.28;687937;28;931;-44
2022/06/15 00:19:59;;;;;;;6.13;3.75;;;;;;;14.52;79.26;101006.41;690719;28;1079;-44
2022/06/15 00:20:19;;;;;;;7.33;4.30;;;;;;;14.50;78.34;101003.81;691947;28;964;-44
2022/06/15 00:20:40;;;;;;;7.15;4.07;;;;;;;14.51;77.68;101002.91;691211;28;872;-45
2022/06/15 00:21:00;;;;;;;6.40;3.80;;;;;;;14.51;77.26;101008.19;690257;28;955;-45
2022/06/15 00:21:21;;;;;;;6.95;3.78;;;;;;;14.48;76.51;101003.81;690599;28;879;-44
2022/06/15 00:21:42;;;;;;;7.40;4.03;;;;;;;14.47;76.36;101009.13;691216;28;983;-44
2022/06/15 00:22:03;;;;;;;7.57;3.90;;;;;;;14.46;76.49;101004.75;690583;28;1319;-44
2022/06/15 00:22:23;;;;;;;6.43;3.70;;;;;;;14.44;76.57;101006.50;689979;28;4274;-44
2022/06/15 00:22:43;;;;;;;6.07;3.70;;;;;;;14.43;77.00;101000.41;690617;28;917;-44
2022/06/15 00:23:04;;;;;;;6.10;3.87;;;;;;;14.44;76.93;101006.50;690612;28;932;-46
2022/06/15 00:23:26;;;;;;;5.70;3.67;;;;;;;14.43;77.33;101010.91;690585;28;1199;-46
2022/06/15 00:23:47;;;;;;;6.78;4.15;;;;;;;14.44;77.53;101003.88;690819;28;1047;-44
2022/06/15 00:24:08;;;;;;;6.85;4.18;;;;;;;14.44;77.66;101010.03;691174;28;955;-44
2022/06/15 00:24:29;;;;;;;6.85;3.65;;;;;;;14.41;77.26;101006.56;691600;28;912;-45
2022/06/15 00:24:49;;;;;;;7.10;4.07;;;;;;;14.41;77.54;101003.94;690669;28;979;-44
2022/06/15 00:25:10;;;;;;;7.77;4.03;;;;;;;14.41;77.34;101002.19;690545;28;4305;-44
2022/06/15 00:25:31;;;;;;;7.70;3.97;;;;;;;14.40;80.81;101005.72;690759;28;1007;-45
2022/06/15 00:25:52;;;;;;;6.90;4.03;;;;;;;14.40;78.66;101003.06;691045;28;1129;-45
2022/06/15 00:26:13;;;;;;;6.43;4.00;;;;;;;14.41;78.05;101004.81;691039;28;977;-45
2022/06/15 00:26:33;;;;;;;7.13;3.85;;;;;;;14.41;77.43;101001.31;690683;28;907;-45
2022/06/15 00:26:54;;;;;;;7.78;3.95;;;;;;;14.39;77.00;101003.09;690439;28;1044;-44
2022/06/15 00:27:14;;;;;;;7.53;4.00;;;;;;;14.38;77.27;101004.84;691125;28;1269;-45
2022/06/15 00:27:35;;;;;;;6.10;3.77;;;;;;;14.38;77.34;101002.22;691302;28;773;-44
2022/06/15 00:27:56;;;;;;;8.38;4.07;;;;;;;14.38;77.03;101004.00;690929;28;900;-44
2022/06/15 00:28:16;;;;;;;6.73;3.83;;;;;;;14.38;76.93;101006.63;690185;28;4504;-44
2022/06/15 00:28:37;;;;;;;7.75;4.13;;;;;;;14.37;76.74;101004.88;691351;28;836;-44
2022/06/15 00:28:58;;;;;;;6.83;4.00;;;;;;;14.36;76.90;101004.00;690643;28;1375;-45
2022/06/15 00:29:19;;;;;;;7.03;4.07;;;;;;;14.34;77.13;101007.56;690510;28;835;-44
2022/06/15 00:29:40;;;;;;;5.97;3.83;;;;;;;14.31;77.59;101006.69;688024;28;868;-44
2022/06/15 00:30:01;;;;;;;6.10;3.80;;;;;;;14.33;77.63;101013.69;682776;28;1993;-46
2022/06/15 00:30:21;;;;;;;12.10;4.75;;;;;;;14.31;77.77;101005.84;682609;28;1071;-44
2022/06/15 00:30:42;;;;;;;7.35;4.32;;;;;;;14.31;80.51;101011.94;682551;28;1603;-44
2022/06/15 00:31:03;;;;;;;7.33;4.37;;;;;;;14.34;78.62;101012.81;683651;28;742;-44
2022/06/15 00:31:24;;;;;;;6.78;4.03;;;;;;;14.31;78.03;101006.69;682480;28;4589;-45
2022/06/15 00:31:44;;;;;;;7.73;4.20;;;;;;;14.30;77.92;101004.97;681200;28;1266;-45
2022/06/15 00:32:06;;;;;;;8.73;4.00;;;;;;;14.30;78.32;101002.34;679470;29;1021;-45
2022/06/15 00:32:26;;;;;;;7.15;3.80;;;;;;;14.34;77.64;101000.53;680682;28;1146;-45
2022/06/15 00:32:47;;;;;;;7.23;3.80;;;;;;;14.34;78.06;101008.41;682127;28;1252;-45
2022/06/15 00:33:08;;;;;;;7.00;3.97;;;;;;;14.34;80.51;101007.56;682798;28;997;-44
2022/06/15 00:33:28;;;;;;;8.07;4.00;;;;;;;14.33;80.69;101005.81;683210;28;983;-46
2022/06/15 00:33:49;;;;;;;7.80;4.10;;;;;;;14.30;82.23;101007.59;681671;28;1621;-44
2022/06/15 00:34:10;;;;;;;7.40;4.05;;;;;;;14.29;81.70;101002.38;680337;28;4358;-44
2022/06/15 00:34:30;;;;;;;7.00;4.10;;;;;;;14.30;80.48;101004.09;680406;28;1212;-44
2022/06/15 00:34:51;;;;;;;7.40;4.43;;;;;;;14.29;80.56;101003.22;680072;28;1278;-46
2022/06/15 00:35:11;;;;;;;6.65;4.00;;;;;;;14.27;80.48;100999.78;680099;29;773;-44
2022/06/15 00:35:32;;;;;;;6.87;3.97;;;;;;;14.27;80.16;101002.41;680232;28;1068;-46
2022/06/15 00:35:58;;;;;;;6.25;3.83;;;;;;;14.27;80.19;100998.88;682933;28;842;-45
2022/06/15 00:36:21;;;;;;;6.45;3.88;;;;;;;14.23;84.12;100998.06;685923;28;1097;-46
2022/06/15 00:36:42;;;;;;;6.90;3.78;;;;;;;14.24;81.78;101005.06;686314;28;1481;-45
2022/06/15 00:37:04;;;;;;;6.25;3.80;;;;;;;14.21;82.37;100999.84;688174;28;970;-45
2022/06/15 00:37:25;;;;;;;6.40;3.72;;;;;;;14.20;83.00;100999.88;687346;28;4659;-45
2022/06/15 00:37:45;;;;;;;7.63;4.10;;;;;;;14.21;81.55;101004.25;686883;28;1195;-44
2022/06/15 00:38:07;;;;;;;7.75;4.10;;;;;;;14.20;80.59;101005.13;685783;28;1434;-45
2022/06/15 00:38:31;;;;;;;7.15;3.80;;;;;;;14.20;80.33;101000.72;685826;28;1003;-44
2022/06/15 00:38:54;;;;;;;7.63;3.85;;;;;;;14.20;79.97;101003.34;685229;28;1354;-44
2022/06/15 00:39:14;;;;;;;7.82;3.95;;;;;;;14.19;80.15;100999.00;683695;28;817;-45
2022/06/15 00:39:35;;;;;;;7.43;4.00;;;;;;;14.17;82.60;101003.41;682657;28;857;-44
2022/06/15 00:39:56;;;;;;;7.60;4.03;;;;;;;14.15;82.27;101002.56;683868;28;1147;-44
2022/06/15 00:40:16;;;;;;;8.00;4.20;;;;;;;14.16;80.47;101004.28;683372;28;4260;-44
2022/06/15 00:40:37;;;;;;;7.67;4.10;;;;;;;14.15;80.57;101005.19;680570;28;1347;-46
2022/06/15 00:40:58;;;;;;;7.95;4.07;;;;;;;14.15;80.96;101007.84;682360;28;984;-46
2022/06/15 00:41:26;;;;;;;7.15;4.20;;;;;;;14.15;81.10;100997.31;681980;28;1443;-46
2022/06/15 00:41:46;;;;;;;6.22;3.88;;;;;;;14.15;80.56;100999.94;680312;28;1404;-44
2022/06/15 00:42:11;;;;;;;6.13;3.67;;;;;;;14.14;82.16;101006.09;682119;28;1508;-43
2022/06/15 00:42:31;;;;;;;7.65;4.25;;;;;;;14.12;80.49;100999.97;684443;28;1303;-44
2022/06/15 00:42:52;;;;;;;7.68;4.20;;;;;;;14.13;80.42;101007.81;680027;28;1418;-44
2022/06/15 00:43:13;;;;;;;7.57;4.00;;;;;;;14.12;82.56;101000.84;682047;28;4464;-45
2022/06/15 00:43:42;;;;;;;8.18;4.30;;;;;;;14.11;80.36;100995.63;685353;28;1165;-44
2022/06/15 00:44:21;;;;;;;7.22;4.38;;;;;;;14.09;80.58;101000.88;684427;28;2137;-44
2022/06/15 00:44:42;;;;;;;7.72;3.85;;;;;;;14.10;80.83;101001.75;686124;28;1160;-47
2022/06/15 00:45:03;;;;;;;6.35;3.70;;;;;;;14.06;82.15;101002.69;684204;28;1349;-44
2022/06/15 00:45:23;;;;;;;7.72;4.10;;;;;;;14.04;83.03;100993.94;684430;28;1311;-44
2022/06/15 00:45:44;;;;;;;7.53;4.38;;;;;;;14.05;81.92;101001.84;685381;28;957;-45
2022/06/15 00:46:39;;;;;;;6.50;4.17;;;;;;;14.03;80.78;101005.38;688461;28;1426;-44
2022/06/15 00:47:11;;;;;;;7.05;3.72;;;;;;;14.01;80.64;100999.25;685825;28;4898;-44
2022/06/15 00:47:37;;;;;;;7.82;4.10;;;;;;;13.98;81.42;101001.94;688407;28;1070;-45
2022/06/15 00:47:58;;;;;;;7.05;4.10;;;;;;;13.99;80.86;100999.28;687541;28;1142;-44
2022/06/15 00:48:18;;;;;;;6.78;4.13;;;;;;;13.98;81.04;100991.41;688949;28;1271;-46
2022/06/15 00:48:40;;;;;;;6.97;3.90;;;;;;;13.99;81.05;101003.69;688623;28;1262;-45
2022/06/15 00:49:08;;;;;;;7.20;3.75;;;;;;;14.00;80.89;101003.66;688692;28;1065;-47
2022/06/15 00:49:34;;;;;;;7.72;4.10;;;;;;;13.98;81.80;101000.16;687883;28;1258;-44
2022/06/15 00:50:09;;;;;;;7.53;4.03;;;;;;;13.92;82.61;101002.88;684948;28;966;-44
2022/06/15 00:50:30;;;;;;;7.10;4.18;;;;;;;13.91;82.33;101001.13;682552;28;1483;-45
2022/06/15 00:50:51;;;;;;;7.70;4.20;;;;;;;13.93;83.01;101004.63;681972;28;1457;-44
2022/06/15 00:51:14;;;;;;;6.63;3.80;;;;;;;13.90;82.25;101002.91;681005;28;1256;-44
2022/06/15 00:51:39;;;;;;;6.25;3.63;;;;;;;13.91;81.90;101001.13;677741;28;1091;-46
2022/06/15 00:52:07;;;;;;;6.50;4.10;;;;;;;13.93;82.25;101002.00;682491;28;1153;-45
2022/06/15 00:52:37;;;;;;;7.80;4.38;;;;;;;13.94;82.18;101001.09;685060;28;4959;-45
2022/06/15 00:53:05;;;;;;;5.70;3.90;;;;;;;13.89;83.52;100998.53;682149;28;1275;-44
2022/06/15 00:53:26;;;;;;;8.18;4.30;;;;;;;13.89;83.01;101000.31;686940;28;1284;-47
2022/06/15 00:53:47;;;;;;;10.17;4.70;;;;;;;13.90;82.01;101002.00;683650;28;1262;-45
2022/06/15 00:54:08;;;;;;;9.45;4.70;;;;;;;13.90;82.13;100994.13;686269;28;1303;-44
2022/06/15 00:54:29;;;;;;;8.05;4.15;;;;;;;13.87;81.98;101000.28;686957;28;1275;-44
2022/06/15 00:54:50;;;;;;;7.70;4.07;;;;;;;13.85;81.82;100998.59;685905;28;3847;-45
2022/06/15 00:55:20;;;;;;;5.47;3.78;;;;;;;13.80;82.63;100996.00;684375;28;4477;-46
2022/06/15 00:55:41;;;;;;;6.40;4.10;;;;;;;13.79;82.83;101004.81;689438;28;1069;-45
2022/06/15 00:56:03;;;;;;;6.95;4.03;;;;;;;13.78;82.82;100997.81;690464;28;1042;-44
2022/06/15 00:56:25;;;;;;;6.53;4.10;;;;;;;13.79;82.74;101000.41;690097;28;1092;-44
2022/06/15 00:56:46;;;;;;;7.53;4.20;;;;;;;13.79;85.06;101002.19;690551;28;1334;-45
2022/06/15 00:57:06;;;;;;;6.93;4.53;;;;;;;13.75;86.78;101006.59;690714;28;1278;-44
2022/06/15 00:57:28;;;;;;;6.10;4.10;;;;;;;13.75;84.98;101008.38;690483;28;1922;-45
2022/06/15 00:57:49;;;;;;;7.10;4.05;;;;;;;13.77;83.68;101007.44;687861;28;1111;-44
2022/06/15 00:58:10;;;;;;;7.35;4.15;;;;;;;13.77;83.73;100998.69;684589;28;4773;-44
2022/06/15 00:58:32;;;;;;;7.20;4.10;;;;;;;13.75;84.19;101001.34;681749;28;1258;-44
2022/06/15 00:58:58;;;;;;;7.15;4.20;;;;;;;13.73;83.41;100997.84;679267;28;1299;-46
2022/06/15 00:59:46;;;;;;;7.45;4.10;;;;;;;13.68;84.90;100996.16;678361;29;1422;-44
2022/06/15 01:00:08;;;;;;;7.72;4.50;;;;;;;13.68;83.92;100998.78;680697;28;1204;-44
2022/06/15 01:00:29;;;;;;;6.03;4.00;;;;;;;13.65;83.57;100991.81;685063;28;1235;-44
2022/06/15 01:00:53;;;;;;;6.85;4.32;;;;;;;13.66;84.24;100995.31;687313;28;1068;-45
2022/06/15 01:01:14;;;;;;;6.82;4.05;;;;;;;13.66;84.27;100996.19;685629;28;4334;-48
2022/06/15 01:01:35;;;;;;;6.97;4.10;;;;;;;13.65;86.19;101004.09;685504;28;1338;-44
2022/06/15 01:01:55;;;;;;;7.50;4.28;;;;;;;13.65;84.76;100999.69;684938;28;1108;-45
2022/06/15 01:02:16;;;;;;;6.10;4.20;;;;;;;13.65;83.37;100998.84;684790;28;1010;-44
2022/06/15 01:02:37;;;;;;;5.80;3.80;;;;;;;13.63;83.47;100999.72;685511;28;1216;-43
2022/06/15 01:02:57;;;;;;;6.32;4.03;;;;;;;13.63;84.07;100999.72;682275;28;1379;-43
2022/06/15 01:03:18;;;;;;;7.40;4.22;;;;;;;13.60;84.51;101001.53;685080;28;1140;-44
2022/06/15 01:03:38;;;;;;;7.13;4.50;;;;;;;13.55;84.97;101001.56;688246;28;1353;-44
2022/06/15 01:04:02;;;;;;;6.68;4.20;;;;;;;13.55;84.60;100998.06;687281;28;1068;-43
2022/06/15 01:04:25;;;;;;;7.40;4.30;;;;;;;13.56;84.43;101003.31;683305;28;4453;-47
2022/06/15 01:04:52;;;;;;;7.10;4.20;;;;;;;13.55;84.40;100998.06;684268;28;1207;-44
2022/06/15 01:05:12;;;;;;;7.05;4.40;;;;;;;13.51;84.31;101001.63;683673;28;1208;-44
2022/06/15 01:06:02;;;;;;;6.20;4.13;;;;;;;13.50;84.78;101002.50;684397;28;1172;-44
2022/06/15 01:07:01;;;;;;;7.53;4.15;;;;;;;13.53;84.41;101005.13;687824;28;1427;-44
2022/06/15 01:07:45;;;;;;;6.68;4.00;;;;;;;13.54;84.58;101002.47;688547;28;4343;-43
2022/06/15 01:08:15;;;;;;;7.07;4.20;;;;;;;13.52;84.60;101004.22;687929;28;1192;-44
2022/06/15 01:08:58;;;;;;;8.27;4.47;;;;;;;13.51;84.23;101001.63;687697;28;1247;-43
2022/06/15 01:09:27;;;;;;;6.13;4.10;;;;;;;13.49;85.28;100998.16;687781;28;1398;-46
2022/06/15 01:10:07;;;;;;;7.70;4.78;;;;;;;13.45;84.01;101000.81;687825;28;1107;-45
2022/06/15 01:10:48;;;;;;;6.93;4.35;;;;;;;13.46;83.95;100996.44;687712;28;6351;-43
2022/06/15 01:11:19;;;;;;;9.07;4.45;;;;;;;13.49;85.01;100998.16;687399;28;1175;-44
2022/06/15 01:11:55;;;;;;;7.32;4.28;;;;;;;13.53;83.74;101008.59;687716;28;1330;-43
2022/06/15 01:12:33;;;;;;;7.40;4.20;;;;;;;13.64;83.81;101005.84;688406;28;1195;-44
2022/06/15 01:13:06;;;;;;;8.02;4.40;;;;;;;13.68;85.60;101004.03;687122;28;1412;-44
2022/06/15 01:13:51;;;;;;;7.00;4.30;;;;;;;13.65;85.33;101004.94;686890;28;5675;-44
2022/06/15 01:14:38;;;;;;;7.28;4.55;;;;;;;13.61;84.92;101001.50;689666;28;1116;-44
2022/06/15 01:15:27;;;;;;;6.80;3.90;;;;;;;13.61;83.75;101008.53;689866;28;1274;-45
2022/06/15 01:16:00;;;;;;;7.50;4.32;;;;;;;13.65;83.59;101010.19;690000;28;953;-45
2022/06/15 01:16:30;;;;;;;7.35;4.38;;;;;;;13.72;83.68;101003.13;686921;28;5393;-48
2022/06/15 01:16:50;;;;;;;8.20;4.25;;;;;;;13.73;83.59;101002.25;684503;28;1029;-45
2022/06/15 01:17:29;;;;;;;7.70;4.17;;;;;;;13.75;82.90;101005.72;685749;28;1151;-45
2022/06/15 01:18:04;;;;;;;7.80;4.32;;;;;;;13.71;83.53;101007.50;679331;28;1003;-44
2022/06/15 01:18:44;;;;;;;6.88;4.10;;;;;;;13.70;82.94;101003.16;679339;29;1377;-47
2022/06/15 01:19:23;;;;;;;7.20;4.43;;;;;;;13.77;82.81;101011.81;681669;28;4557;-44
2022/06/15 01:20:20;;;;;;;7.13;4.30;;;;;;;13.77;84.15;101009.19;682109;28;909;-45
2022/06/15 01:21:24;;;;;;;5.95;4.13;;;;;;;13.81;84.16;101010.91;683870;28;1232;-44
2022/06/15 01:22:01;;;;;;;8.20;4.50;;;;;;;13.74;83.63;101009.25;675687;29;1496;-45
2022/06/15 01:22:40;;;;;;;6.88;4.10;;;;;;;13.67;83.73;101007.59;678257;29;4398;-45
2022/06/15 01:23:31;;;;;;;5.82;4.10;;;;;;;13.52;87.04;101006.00;686461;28;1299;-44
2022/06/15 01:24:01;;;;;;;9.45;4.78;;;;;;;13.44;85.05;101004.34;686628;28;1020;-45
2022/06/15 01:24:52;;;;;;;7.53;4.47;;;;;;;13.33;86.72;101008.78;685789;28;1303;-44
2022/06/15 01:25:36;;;;;;;7.60;4.28;;;;;;;13.27;86.03;101008.84;687032;28;4622;-44
2022/06/15 01:26:02;;;;;;;8.70;4.70;;;;;;;13.23;86.29;101013.25;687868;28;968;-44
2022/06/15 01:26:42;;;;;;;6.60;4.20;;;;;;;13.19;87.01;101014.16;688079;28;1360;-44
2022/06/15 01:27:32;;;;;;;7.38;4.35;;;;;;;13.17;86.34;101010.72;688176;28;1183;-46
2022/06/15 01:28:35;;;;;;;7.13;4.65;;;;;;;13.12;88.36;101009.88;689716;28;992;-45
2022/06/15 01:29:18;;;;;;;6.32;4.40;;;;;;;13.03;89.27;101004.69;678391;28;5171;-45
2022/06/15 01:30:03;;;;;;;9.07;4.63;;;;;;;13.04;88.40;101009.06;684584;28;1375;-46
2022/06/15 01:30:53;;;;;;;8.50;4.28;;;;;;;13.06;87.87;101013.44;686328;28;1183;-45
2022/06/15 01:31:25;;;;;;;7.43;4.30;;;;;;;13.12;87.04;101007.25;687903;28;2155;-44
2022/06/15 01:32:18;;;;;;;7.05;4.30;;;;;;;13.21;87.49;101009.78;689730;28;1247;-45
2022/06/15 01:32:42;;;;;;;7.82;4.22;;;;;;;13.32;86.40;101014.03;685580;28;1175;-45
2022/06/15 01:33:18;;;;;;;6.18;3.90;;;;;;;13.28;86.69;101010.59;682763;28;1355;-44
2022/06/15 01:34:01;;;;;;;7.03;4.13;;;;;;;13.24;86.33;101012.38;683134;28;1184;-44
2022/06/15 01:34:27;;;;;;;7.38;4.25;;;;;;;13.16;87.18;101006.34;683879;28;4309;-44
2022/06/15 01:34:58;;;;;;;8.40;4.65;;;;;;;13.13;86.78;101010.75;687762;28;1071;-45
2022/06/15 01:35:47;;;;;;;6.07;4.13;;;;;;;13.14;87.13;101007.22;691091;28;1220;-45
2022/06/15 01:36:36;;;;;;;6.40;4.20;;;;;;;13.05;87.33;101013.44;686417;28;1370;-45
2022/06/15 01:37:04;;;;;;;6.63;4.40;;;;;;;13.07;86.41;101003.78;687252;28;1075;-44
2022/06/15 01:37:33;;;;;;;6.72;4.45;;;;;;;13.09;86.97;101007.28;687381;28;4755;-44
2022/06/15 01:38:19;;;;;;;6.93;4.65;;;;;;;13.10;86.78;101009.03;687667;28;1185;-46
2022/06/15 01:38:50;;;;;;;6.97;4.57;;;;;;;13.00;88.95;101010.00;690604;28;1028;-45
2022/06/15 01:39:21;;;;;;;7.80;4.47;;;;;;;12.95;88.48;101007.41;690705;28;1302;-45
2022/06/15 01:40:07;;;;;;;6.22;4.38;;;;;;;13.01;88.04;101009.13;690909;28;1230;-44
2022/06/15 01:40:35;;;;;;;7.03;4.80;;;;;;;12.86;89.72;101011.00;691353;28;4814;-44
2022/06/15 01:41:09;;;;;;;6.85;4.50;;;;;;;12.74;89.97;101003.22;687484;28;2340;-44
2022/06/15 01:41:35;;;;;;;8.00;4.55;;;;;;;12.73;90.29;101004.97;687571;28;1124;-46
2022/06/15 01:42:14;;;;;;;7.30;4.85;;;;;;;12.75;90.30;101010.19;688049;28;1172;-44
2022/06/15 01:42:42;;;;;;;7.05;4.60;;;;;;;12.77;90.84;101011.06;682969;28;1203;-45
2022/06/15 01:43:15;;;;;;;7.00;4.70;;;;;;;12.73;92.00;101009.34;684942;28;1434;-45
2022/06/15 01:43:43;;;;;;;8.07;4.85;;;;;;;12.64;91.39;101007.69;685128;28;4942;-44
2022/06/15 01:44:24;;;;;;;7.90;4.68;;;;;;;12.66;92.17;101008.53;682179;28;1395;-44
2022/06/15 01:44:49;;;;;;;6.80;4.70;;;;;;;12.71;89.92;101003.22;681180;28;1252;-46
2022/06/15 01:45:17;;;;;;;5.95;4.55;;;;;;;12.74;91.31;101009.34;682481;28;1193;-44
2022/06/15 01:45:41;;;;;;;7.77;4.70;;;;;;;12.74;91.98;101003.22;682570;28;1254;-44
2022/06/15 01:46:03;;;;;;;8.85;4.63;;;;;;;12.78;90.00;101005.81;681474;28;1487;-43
2022/06/15 01:46:28;;;;;;;7.53;4.60;;;;;;;12.81;89.91;101004.91;681243;28;5044;-44
2022/06/15 01:46:48;;;;;;;8.00;4.70;;;;;;;12.84;89.09;101004.88;684345;28;1152;-45
2022/06/15 01:47:15;;;;;;;6.72;4.43;;;;;;;12.91;88.77;101005.72;685319;28;1137;-44
2022/06/15 01:47:37;;;;;;;5.70;4.43;;;;;;;12.94;88.88;101011.81;684163;28;1172;-44
2022/06/15 01:48:02;;;;;;;5.72;4.53;;;;;;;12.89;90.05;101008.34;687483;28;1203;-44
2022/06/15 01:48:23;;;;;;;6.78;4.70;;;;;;;12.85;89.50;101011.88;684268;28;1250;-44
2022/06/15 01:48:46;;;;;;;7.68;4.78;;;;;;;12.81;89.47;101004.91;682052;28;1402;-44
2022/06/15 01:49:10;;;;;;;7.70;4.75;;;;;;;12.78;89.85;101012.81;679880;28;4423;-45
2022/06/15 01:49:37;;;;;;;7.78;5.05;;;;;;;12.77;89.85;101005.81;679313;29;1787;-44
2022/06/15 01:50:03;;;;;;;7.38;4.60;;;;;;;12.78;88.97;101010.19;677621;29;1440;-44
2022/06/15 01:50:29;;;;;;;8.23;5.35;;;;;;;12.78;89.21;101015.44;677307;29;1458;-44
2022/06/15 01:50:55;;;;;;;7.65;5.30;;;;;;;12.82;89.31;101011.03;679478;28;1210;-44
2022/06/15 01:51:20;;;;;;;6.68;4.57;;;;;;;12.81;89.82;101007.53;683221;28;3891;-45
2022/06/15 01:51:43;;;;;;;7.72;4.72;;;;;;;12.83;89.22;101008.38;684235;28;1116;-44
2022/06/15 01:52:06;;;;;;;7.38;4.50;;;;;;;12.84;89.57;101009.28;685662;28;1612;-44
2022/06/15 01:52:36;;;;;;;6.80;4.40;;;;;;;12.81;89.55;101007.53;684630;28;5016;-44
2022/06/15 01:53:04;;;;;;;6.82;4.43;;;;;;;12.82;90.04;101006.66;682596;28;1560;-44
2022/06/15 01:53:35;;;;;;;7.05;4.68;;;;;;;12.75;91.45;101005.84;681789;28;1140;-44
2022/06/15 01:54:01;;;;;;;6.90;4.70;;;;;;;12.72;90.73;101010.22;680607;28;1257;-45
2022/06/15 01:54:31;;;;;;;7.30;5.03;;;;;;;12.71;90.49;101004.13;683496;28;1314;-44
2022/06/15 01:55:00;;;;;;;6.68;4.80;;;;;;;12.66;90.17;101005.06;686209;28;2155;-45
2022/06/15 01:55:27;;;;;;;6.97;4.90;;;;;;;12.57;91.61;101004.25;683890;28;4435;-44
2022/06/15 01:55:52;;;;;;;8.77;5.05;;;;;;;12.53;91.10;101002.53;683660;28;1090;-43
2022/06/15 01:56:33;;;;;;;8.73;5.05;;;;;;;12.55;91.28;101003.34;682837;28;1319;-44
2022/06/15 01:56:56;;;;;;;8.13;4.85;;;;;;;12.54;92.62;101011.25;685565;28;1565;-45
2022/06/15 01:57:20;;;;;;;8.77;5.38;;;;;;;12.52;91.88;101003.41;685121;28;1654;-44
2022/06/15 01:57:43;;;;;;;8.05;5.07;;;;;;;12.53;91.06;101002.53;683077;28;1946;-44
2022/06/15 01:58:09;;;;;;;7.32;4.60;;;;;;;12.57;91.06;101003.34;683484;28;1324;-44
2022/06/15 01:58:35;;;;;;;7.03;4.80;;;;;;;12.59;90.53;100999.84;682374;28;5132;-48
2022/06/15 01:59:10;;;;;;;8.02;4.90;;;;;;;12.63;91.46;101005.06;681508;28;1347;-44
2022/06/15 01:59:37;;;;;;;6.90;4.68;;;;;;;12.64;92.19;101006.81;683222;28;1218;-45
2022/06/15 02:00:04;;;;;;;8.00;4.90;;;;;;;12.64;91.64;100998.94;682692;28;1149;-44
2022/06/15 02:00:25;;;;;;;7.97;5.00;;;;;;;12.66;91.25;101003.28;685291;28;1173;-46
2022/06/15 02:00:53;;;;;;;7.00;4.90;;;;;;;12.70;90.36;101001.53;682913;28;1384;-44
2022/06/15 02:01:46;;;;;;;6.55;4.63;;;;;;;12.81;89.37;101001.41;684659;28;4506;-44
2022/06/15 02:02:18;;;;;;;6.35;4.60;;;;;;;12.87;89.31;100999.59;674381;29;1299;-46
2022/06/15 02:02:59;;;;;;;6.95;4.72;;;;;;;12.91;88.97;101000.47;676091;29;1236;-44
2022/06/15 02:03:28;;;;;;;7.18;4.72;;;;;;;12.85;91.10;101001.38;683470;28;1452;-44
2022/06/15 02:04:15;;;;;;;7.20;4.80;;;;;;;12.82;90.21;100998.78;684625;28;1140;-44
2022/06/15 02:04:46;;;;;;;8.13;5.15;;;;;;;12.81;89.64;100997.03;684592;28;6021;-44
2022/06/15 02:05:08;;;;;;;7.90;4.80;;;;;;;12.86;89.25;100992.63;682056;28;1422;-44
2022/06/15 02:05:42;;;;;;;9.40;4.93;;;;;;;12.95;88.37;100997.78;679672;28;1464;-44
2022/06/15 02:06:09;;;;;;;8.15;4.70;;;;;;;12.97;88.59;101000.38;676965;29;4924;-44
2022/06/15 02:07:06;;;;;;;8.32;4.60;;;;;;;12.94;90.44;100996.06;679015;29;1655;-44
2022/06/15 02:07:34;;;;;;;7.60;4.75;;;;;;;13.01;87.93;101001.25;678362;29;5136;-44
2022/06/15 02:07:59;;;;;;;6.32;4.43;;;;;;;13.03;87.88;101000.34;677231;28;1169;-44
2022/06/15 02:09:01;;;;;;;6.15;4.45;;;;;;;12.89;89.41;100994.34;680288;28;1277;-44